LSQ weather

María Dolores Airport
Los Angeles, Bío-Bío Region, Chile

Public forecast

Using degrees Celsius for public forecast. Weather courtesy of forecast.io.

METAR (pilot weather report)

Retrieved 2019/02/15 21:00 UTC (9 minutes ago):

SCGE 152100Z 36013KT 7000 NSC 35/15 Q1009

TAF (pilot weather forecast)

Closest forecast is Carriel Sur Airport, 48.6 nm (90.0 km) NW. Retrieved 2019/02/15 18:00 UTC (3 hours ago):

TAF SCIE 151630Z 1518/1618 22005KT 5000 HZ BKN008 TX20/1518Z TN13/1611Z BECMG 1519/1521 35005KT 7000 SCT008 BKN010 TEMPO 1520/1600 35004KT SCT010 BECMG 1602/1604 BKN008 TEMPO 1604/1608 3000 BR OVC003 BECMG 1616/1618 23010KT CAVOK